sensor_id;sensor_type;location;lat;lon;timestamp;P1;durP1;ratioP1;P2;durP2;ratioP2
32032;SDS011;31720;52.638;9.216;2023-07-29T00:00:48;6.90;;;4.18;;
32032;SDS011;31720;52.638;9.216;2023-07-29T00:03:49;5.00;;;3.40;;
32032;SDS011;31720;52.638;9.216;2023-07-29T00:06:50;6.20;;;4.35;;
32032;SDS011;31720;52.638;9.216;2023-07-29T00:09:52;4.32;;;3.03;;
32032;SDS011;31720;52.638;9.216;2023-07-29T00:12:53;4.40;;;3.13;;
32032;SDS011;31720;52.638;9.216;2023-07-29T00:15:56;4.63;;;3.45;;
32032;SDS011;31720;52.638;9.216;2023-07-29T00:18:57;5.55;;;2.83;;
32032;SDS011;31720;52.638;9.216;2023-07-29T00:21:59;5.65;;;3.08;;
32032;SDS011;31720;52.638;9.216;2023-07-29T00:25:00;4.93;;;3.45;;
32032;SDS011;31720;52.638;9.216;2023-07-29T00:28:02;5.85;;;3.88;;
32032;SDS011;31720;52.638;9.216;2023-07-29T00:31:05;5.28;;;3.88;;
32032;SDS011;31720;52.638;9.216;2023-07-29T00:34:06;6.93;;;3.08;;
32032;SDS011;31720;52.638;9.216;2023-07-29T00:37:07;7.25;;;4.03;;
32032;SDS011;31720;52.638;9.216;2023-07-29T00:40:13;5.57;;;3.40;;
32032;SDS011;31720;52.638;9.216;2023-07-29T00:43:17;5.88;;;3.58;;
32032;SDS011;31720;52.638;9.216;2023-07-29T00:46:19;8.40;;;4.07;;
32032;SDS011;31720;52.638;9.216;2023-07-29T00:49:21;4.60;;;3.00;;
32032;SDS011;31720;52.638;9.216;2023-07-29T00:52:23;6.15;;;3.53;;
32032;SDS011;31720;52.638;9.216;2023-07-29T00:55:24;4.45;;;2.90;;
32032;SDS011;31720;52.638;9.216;2023-07-29T00:58:26;5.75;;;3.78;;
32032;SDS011;31720;52.638;9.216;2023-07-29T01:01:28;6.75;;;3.97;;
32032;SDS011;31720;52.638;9.216;2023-07-29T01:04:30;4.68;;;3.30;;
32032;SDS011;31720;52.638;9.216;2023-07-29T01:07:33;6.85;;;3.45;;
32032;SDS011;31720;52.638;9.216;2023-07-29T01:10:43;5.85;;;3.58;;
32032;SDS011;31720;52.638;9.216;2023-07-29T01:13:53;4.03;;;3.00;;
32032;SDS011;31720;52.638;9.216;2023-07-29T01:17:03;5.32;;;3.63;;
32032;SDS011;31720;52.638;9.216;2023-07-29T01:20:08;6.80;;;3.35;;
32032;SDS011;31720;52.638;9.216;2023-07-29T01:23:12;4.93;;;3.38;;
32032;SDS011;31720;52.638;9.216;2023-07-29T01:26:15;6.85;;;3.80;;
32032;SDS011;31720;52.638;9.216;2023-07-29T01:29:16;5.70;;;3.25;;
32032;SDS011;31720;52.638;9.216;2023-07-29T01:32:19;5.00;;;3.03;;
32032;SDS011;31720;52.638;9.216;2023-07-29T01:35:27;4.67;;;3.40;;
32032;SDS011;31720;52.638;9.216;2023-07-29T01:38:35;4.72;;;3.13;;
32032;SDS011;31720;52.638;9.216;2023-07-29T01:41:39;4.00;;;1.95;;
32032;SDS011;31720;52.638;9.216;2023-07-29T01:44:41;3.92;;;2.47;;
32032;SDS011;31720;52.638;9.216;2023-07-29T01:47:43;4.15;;;2.92;;
32032;SDS011;31720;52.638;9.216;2023-07-29T01:50:44;2.50;;;2.30;;
32032;SDS011;31720;52.638;9.216;2023-07-29T01:53:46;4.38;;;2.92;;
32032;SDS011;31720;52.638;9.216;2023-07-29T01:56:49;3.88;;;2.45;;
32032;SDS011;31720;52.638;9.216;2023-07-29T01:59:51;4.32;;;2.72;;
32032;SDS011;31720;52.638;9.216;2023-07-29T02:02:52;3.38;;;2.70;;
32032;SDS011;31720;52.638;9.216;2023-07-29T02:05:54;4.50;;;2.60;;
32032;SDS011;31720;52.638;9.216;2023-07-29T02:08:55;4.35;;;2.53;;
32032;SDS011;31720;52.638;9.216;2023-07-29T02:11:58;4.00;;;2.50;;
32032;SDS011;31720;52.638;9.216;2023-07-29T02:15:00;2.63;;;2.03;;
32032;SDS011;31720;52.638;9.216;2023-07-29T02:18:01;4.45;;;2.75;;
32032;SDS011;31720;52.638;9.216;2023-07-29T02:21:03;2.63;;;2.13;;
32032;SDS011;31720;52.638;9.216;2023-07-29T02:24:05;2.55;;;2.00;;
32032;SDS011;31720;52.638;9.216;2023-07-29T02:27:07;2.47;;;1.83;;
32032;SDS011;31720;52.638;9.216;2023-07-29T02:30:09;5.22;;;2.58;;
32032;SDS011;31720;52.638;9.216;2023-07-29T02:33:12;2.60;;;2.10;;
32032;SDS011;31720;52.638;9.216;2023-07-29T02:36:13;4.32;;;2.47;;
32032;SDS011;31720;52.638;9.216;2023-07-29T02:39:15;2.88;;;2.13;;
32032;SDS011;31720;52.638;9.216;2023-07-29T02:42:18;4.40;;;2.80;;
32032;SDS011;31720;52.638;9.216;2023-07-29T02:45:19;3.08;;;1.90;;
32032;SDS011;31720;52.638;9.216;2023-07-29T02:48:21;2.40;;;1.80;;
32032;SDS011;31720;52.638;9.216;2023-07-29T02:51:22;4.28;;;2.22;;
32032;SDS011;31720;52.638;9.216;2023-07-29T02:54:23;4.55;;;2.03;;
32032;SDS011;31720;52.638;9.216;2023-07-29T02:57:26;3.97;;;2.65;;
32032;SDS011;31720;52.638;9.216;2023-07-29T03:00:30;3.88;;;2.10;;
32032;SDS011;31720;52.638;9.216;2023-07-29T03:03:32;3.13;;;2.40;;
32032;SDS011;31720;52.638;9.216;2023-07-29T03:06:34;3.75;;;2.42;;
32032;SDS011;31720;52.638;9.216;2023-07-29T03:09:36;3.17;;;2.28;;
32032;SDS011;31720;52.638;9.216;2023-07-29T03:12:39;3.83;;;2.63;;
32032;SDS011;31720;52.638;9.216;2023-07-29T03:15:40;2.60;;;1.42;;
32032;SDS011;31720;52.638;9.216;2023-07-29T03:18:42;4.30;;;2.35;;
32032;SDS011;31720;52.638;9.216;2023-07-29T03:21:44;2.80;;;2.28;;
32032;SDS011;31720;52.638;9.216;2023-07-29T03:24:46;2.90;;;2.03;;
32032;SDS011;31720;52.638;9.216;2023-07-29T03:27:48;4.20;;;2.10;;
32032;SDS011;31720;52.638;9.216;2023-07-29T03:30:50;5.47;;;2.20;;
32032;SDS011;31720;52.638;9.216;2023-07-29T03:33:52;3.47;;;2.17;;
32032;SDS011;31720;52.638;9.216;2023-07-29T03:36:53;4.80;;;2.72;;
32032;SDS011;31720;52.638;9.216;2023-07-29T03:39:55;2.92;;;2.15;;
32032;SDS011;31720;52.638;9.216;2023-07-29T03:42:57;3.67;;;2.45;;
32032;SDS011;31720;52.638;9.216;2023-07-29T03:45:59;3.65;;;2.28;;
32032;SDS011;31720;52.638;9.216;2023-07-29T03:49:01;3.70;;;2.10;;
32032;SDS011;31720;52.638;9.216;2023-07-29T03:52:03;2.47;;;1.85;;
32032;SDS011;31720;52.638;9.216;2023-07-29T03:55:06;3.80;;;2.47;;
32032;SDS011;31720;52.638;9.216;2023-07-29T03:58:09;5.43;;;2.85;;
32032;SDS011;31720;52.638;9.216;2023-07-29T04:01:10;2.55;;;2.00;;
32032;SDS011;31720;52.638;9.216;2023-07-29T04:04:12;3.78;;;2.20;;
32032;SDS011;31720;52.638;9.216;2023-07-29T04:07:13;3.05;;;2.00;;
32032;SDS011;31720;52.638;9.216;2023-07-29T04:10:15;2.58;;;1.70;;
32032;SDS011;31720;52.638;9.216;2023-07-29T04:13:18;3.17;;;1.83;;
32032;SDS011;31720;52.638;9.216;2023-07-29T04:16:20;2.55;;;1.70;;
32032;SDS011;31720;52.638;9.216;2023-07-29T04:19:21;4.95;;;1.95;;
32032;SDS011;31720;52.638;9.216;2023-07-29T04:22:22;2.72;;;2.22;;
32032;SDS011;31720;52.638;9.216;2023-07-29T04:25:24;2.30;;;2.00;;
32032;SDS011;31720;52.638;9.216;2023-07-29T04:28:27;2.47;;;1.90;;
32032;SDS011;31720;52.638;9.216;2023-07-29T04:31:28;3.00;;;1.88;;
32032;SDS011;31720;52.638;9.216;2023-07-29T04:34:30;2.25;;;1.85;;
32032;SDS011;31720;52.638;9.216;2023-07-29T04:37:32;2.10;;;1.42;;
32032;SDS011;31720;52.638;9.216;2023-07-29T04:40:33;2.72;;;1.85;;
32032;SDS011;31720;52.638;9.216;2023-07-29T04:43:36;2.50;;;1.60;;
32032;SDS011;31720;52.638;9.216;2023-07-29T04:46:38;2.47;;;1.60;;
32032;SDS011;31720;52.638;9.216;2023-07-29T04:49:39;3.78;;;2.10;;
32032;SDS011;31720;52.638;9.216;2023-07-29T04:52:41;2.63;;;1.77;;
32032;SDS011;31720;52.638;9.216;2023-07-29T04:55:42;2.45;;;1.85;;
32032;SDS011;31720;52.638;9.216;2023-07-29T04:58:45;2.13;;;1.80;;
32032;SDS011;31720;52.638;9.216;2023-07-29T05:01:47;3.20;;;2.08;;
32032;SDS011;31720;52.638;9.216;2023-07-29T05:04:48;2.25;;;1.70;;
32032;SDS011;31720;52.638;9.216;2023-07-29T05:07:50;2.25;;;1.83;;
32032;SDS011;31720;52.638;9.216;2023-07-29T05:10:51;2.78;;;1.70;;
32032;SDS011;31720;52.638;9.216;2023-07-29T05:13:55;2.40;;;1.70;;
32032;SDS011;31720;52.638;9.216;2023-07-29T05:16:57;1.98;;;1.67;;
32032;SDS011;31720;52.638;9.216;2023-07-29T05:19:58;2.05;;;1.42;;
32032;SDS011;31720;52.638;9.216;2023-07-29T05:23:00;6.72;;;2.65;;
32032;SDS011;31720;52.638;9.216;2023-07-29T05:26:01;2.50;;;1.60;;
32032;SDS011;31720;52.638;9.216;2023-07-29T05:29:04;4.68;;;2.72;;
32032;SDS011;31720;52.638;9.216;2023-07-29T05:32:07;5.50;;;2.60;;
32032;SDS011;31720;52.638;9.216;2023-07-29T05:35:08;3.75;;;2.75;;
32032;SDS011;31720;52.638;9.216;2023-07-29T05:38:10;3.28;;;2.60;;
32032;SDS011;31720;52.638;9.216;2023-07-29T05:41:11;4.10;;;2.78;;
32032;SDS011;31720;52.638;9.216;2023-07-29T05:44:14;3.50;;;2.20;;
32032;SDS011;31720;52.638;9.216;2023-07-29T05:47:15;3.38;;;2.13;;
32032;SDS011;31720;52.638;9.216;2023-07-29T05:50:17;2.53;;;2.10;;
32032;SDS011;31720;52.638;9.216;2023-07-29T05:53:18;3.72;;;2.38;;
32032;SDS011;31720;52.638;9.216;2023-07-29T05:56:19;4.82;;;2.85;;
32032;SDS011;31720;52.638;9.216;2023-07-29T05:59:22;4.07;;;2.38;;
32032;SDS011;31720;52.638;9.216;2023-07-29T06:02:24;5.03;;;2.78;;
32032;SDS011;31720;52.638;9.216;2023-07-29T06:05:25;7.15;;;2.60;;
32032;SDS011;31720;52.638;9.216;2023-07-29T06:08:27;3.00;;;2.30;;
32032;SDS011;31720;52.638;9.216;2023-07-29T06:11:29;3.28;;;2.30;;
32032;SDS011;31720;52.638;9.216;2023-07-29T06:14:31;3.28;;;2.28;;
32032;SDS011;31720;52.638;9.216;2023-07-29T06:17:33;3.10;;;2.40;;
32032;SDS011;31720;52.638;9.216;2023-07-29T06:20:34;3.55;;;2.17;;
32032;SDS011;31720;52.638;9.216;2023-07-29T06:23:36;3.35;;;2.30;;
32032;SDS011;31720;52.638;9.216;2023-07-29T06:26:37;4.45;;;2.63;;
32032;SDS011;31720;52.638;9.216;2023-07-29T06:29:40;2.78;;;2.00;;
32032;SDS011;31720;52.638;9.216;2023-07-29T06:32:41;4.13;;;2.92;;
32032;SDS011;31720;52.638;9.216;2023-07-29T06:35:43;4.35;;;2.95;;
32032;SDS011;31720;52.638;9.216;2023-07-29T06:38:44;4.97;;;3.45;;
32032;SDS011;31720;52.638;9.216;2023-07-29T06:41:46;4.50;;;3.10;;
32032;SDS011;31720;52.638;9.216;2023-07-29T06:44:48;5.63;;;3.47;;
32032;SDS011;31720;52.638;9.216;2023-07-29T06:47:50;5.40;;;3.13;;
32032;SDS011;31720;52.638;9.216;2023-07-29T06:50:51;6.65;;;4.30;;
32032;SDS011;31720;52.638;9.216;2023-07-29T06:53:52;7.22;;;4.13;;
32032;SDS011;31720;52.638;9.216;2023-07-29T06:56:54;6.60;;;4.13;;
32032;SDS011;31720;52.638;9.216;2023-07-29T06:59:57;6.80;;;4.03;;
32032;SDS011;31720;52.638;9.216;2023-07-29T07:02:58;9.60;;;4.93;;
32032;SDS011;31720;52.638;9.216;2023-07-29T07:05:59;12.43;;;6.00;;
32032;SDS011;31720;52.638;9.216;2023-07-29T07:09:01;9.00;;;4.90;;
32032;SDS011;31720;52.638;9.216;2023-07-29T07:12:02;8.43;;;5.53;;
32032;SDS011;31720;52.638;9.216;2023-07-29T07:15:06;9.55;;;5.93;;
32032;SDS011;31720;52.638;9.216;2023-07-29T07:18:08;10.77;;;6.03;;
32032;SDS011;31720;52.638;9.216;2023-07-29T07:21:10;11.40;;;5.65;;
32032;SDS011;31720;52.638;9.216;2023-07-29T07:24:11;9.27;;;5.50;;
32032;SDS011;31720;52.638;9.216;2023-07-29T07:27:13;13.00;;;5.40;;
32032;SDS011;31720;52.638;9.216;2023-07-29T07:30:16;7.28;;;4.65;;
32032;SDS011;31720;52.638;9.216;2023-07-29T07:33:17;8.48;;;5.35;;
32032;SDS011;31720;52.638;9.216;2023-07-29T07:36:18;10.98;;;6.30;;
32032;SDS011;31720;52.638;9.216;2023-07-29T07:39:20;10.32;;;6.60;;
32032;SDS011;31720;52.638;9.216;2023-07-29T07:42:21;12.10;;;6.35;;
32032;SDS011;31720;52.638;9.216;2023-07-29T07:45:24;10.30;;;6.72;;
32032;SDS011;31720;52.638;9.216;2023-07-29T07:48:26;12.07;;;6.57;;
32032;SDS011;31720;52.638;9.216;2023-07-29T07:51:27;13.68;;;7.60;;
32032;SDS011;31720;52.638;9.216;2023-07-29T07:54:28;9.93;;;6.85;;
32032;SDS011;31720;52.638;9.216;2023-07-29T07:57:30;10.80;;;7.25;;
32032;SDS011;31720;52.638;9.216;2023-07-29T08:00:32;11.00;;;7.78;;
32032;SDS011;31720;52.638;9.216;2023-07-29T08:03:34;11.88;;;8.18;;
32032;SDS011;31720;52.638;9.216;2023-07-29T08:06:36;11.48;;;7.35;;
32032;SDS011;31720;52.638;9.216;2023-07-29T08:09:37;12.38;;;8.23;;
32032;SDS011;31720;52.638;9.216;2023-07-29T08:12:39;11.13;;;6.68;;
32032;SDS011;31720;52.638;9.216;2023-07-29T08:15:45;12.65;;;7.97;;
32032;SDS011;31720;52.638;9.216;2023-07-29T08:18:47;15.38;;;7.25;;
32032;SDS011;31720;52.638;9.216;2023-07-29T08:21:54;11.85;;;8.25;;
32032;SDS011;31720;52.638;9.216;2023-07-29T08:24:58;14.02;;;8.75;;
32032;SDS011;31720;52.638;9.216;2023-07-29T08:28:03;15.50;;;8.95;;
32032;SDS011;31720;52.638;9.216;2023-07-29T08:31:06;14.35;;;8.50;;
32032;SDS011;31720;52.638;9.216;2023-07-29T08:34:09;16.33;;;9.38;;
32032;SDS011;31720;52.638;9.216;2023-07-29T08:37:31;14.85;;;8.98;;
32032;SDS011;31720;52.638;9.216;2023-07-29T08:40:32;15.07;;;9.18;;
32032;SDS011;31720;52.638;9.216;2023-07-29T08:47:24;15.45;;;9.38;;
32032;SDS011;31720;52.638;9.216;2023-07-29T08:50:49;19.33;;;10.30;;
32032;SDS011;31720;52.638;9.216;2023-07-29T08:54:19;14.77;;;9.00;;
32032;SDS011;31720;52.638;9.216;2023-07-29T08:59:20;15.38;;;9.75;;
32032;SDS011;31720;52.638;9.216;2023-07-29T09:01:47;17.52;;;10.38;;
32032;SDS011;31720;52.638;9.216;2023-07-29T09:05:31;15.30;;;9.82;;
32032;SDS011;31720;52.638;9.216;2023-07-29T09:08:46;16.35;;;9.45;;
32032;SDS011;31720;52.638;9.216;2023-07-29T09:11:50;14.00;;;8.80;;
32032;SDS011;31720;52.638;9.216;2023-07-29T09:14:51;13.13;;;8.40;;
32032;SDS011;31720;52.638;9.216;2023-07-29T09:17:53;16.00;;;9.20;;
32032;SDS011;31720;52.638;9.216;2023-07-29T09:20:58;14.02;;;8.35;;
32032;SDS011;31720;52.638;9.216;2023-07-29T09:24:02;11.52;;;7.15;;
32032;SDS011;31720;52.638;9.216;2023-07-29T09:27:05;13.50;;;7.38;;
32032;SDS011;31720;52.638;9.216;2023-07-29T09:30:08;11.52;;;7.38;;
32032;SDS011;31720;52.638;9.216;2023-07-29T09:33:17;12.63;;;5.47;;
32032;SDS011;31720;52.638;9.216;2023-07-29T09:36:20;9.18;;;5.60;;
32032;SDS011;31720;52.638;9.216;2023-07-29T09:39:22;9.60;;;5.18;;
32032;SDS011;31720;52.638;9.216;2023-07-29T09:42:24;12.10;;;5.90;;
32032;SDS011;31720;52.638;9.216;2023-07-29T09:45:26;10.88;;;6.97;;
32032;SDS011;31720;52.638;9.216;2023-07-29T09:48:32;10.50;;;6.95;;
32032;SDS011;31720;52.638;9.216;2023-07-29T09:51:38;17.92;;;7.90;;
32032;SDS011;31720;52.638;9.216;2023-07-29T09:54:40;13.23;;;8.07;;
32032;SDS011;31720;52.638;9.216;2023-07-29T09:57:43;15.55;;;9.07;;
32032;SDS011;31720;52.638;9.216;2023-07-29T10:00:45;17.42;;;9.00;;
32032;SDS011;31720;52.638;9.216;2023-07-29T10:03:48;16.33;;;8.85;;
32032;SDS011;31720;52.638;9.216;2023-07-29T10:06:51;19.60;;;10.45;;
32032;SDS011;31720;52.638;9.216;2023-07-29T10:09:53;18.60;;;10.18;;
32032;SDS011;31720;52.638;9.216;2023-07-29T10:12:57;15.25;;;9.32;;
32032;SDS011;31720;52.638;9.216;2023-07-29T10:15:58;18.90;;;9.38;;
32032;SDS011;31720;52.638;9.216;2023-07-29T10:19:02;17.92;;;10.77;;
32032;SDS011;31720;52.638;9.216;2023-07-29T10:22:06;18.85;;;10.93;;
32032;SDS011;31720;52.638;9.216;2023-07-29T10:25:09;19.15;;;11.10;;
32032;SDS011;31720;52.638;9.216;2023-07-29T10:28:14;20.15;;;11.02;;
32032;SDS011;31720;52.638;9.216;2023-07-29T10:31:16;20.05;;;11.27;;
32032;SDS011;31720;52.638;9.216;2023-07-29T10:34:18;15.73;;;10.50;;
32032;SDS011;31720;52.638;9.216;2023-07-29T10:37:23;15.63;;;10.48;;
32032;SDS011;31720;52.638;9.216;2023-07-29T10:40:25;16.35;;;9.73;;
32032;SDS011;31720;52.638;9.216;2023-07-29T10:43:27;17.48;;;9.73;;
32032;SDS011;31720;52.638;9.216;2023-07-29T10:46:33;14.43;;;8.93;;
32032;SDS011;31720;52.638;9.216;2023-07-29T10:49:36;10.77;;;7.05;;
32032;SDS011;31720;52.638;9.216;2023-07-29T10:52:40;8.55;;;5.90;;
32032;SDS011;31720;52.638;9.216;2023-07-29T10:55:43;10.63;;;6.00;;
32032;SDS011;31720;52.638;9.216;2023-07-29T10:58:45;5.55;;;4.30;;
32032;SDS011;31720;52.638;9.216;2023-07-29T11:01:50;7.72;;;4.70;;
32032;SDS011;31720;52.638;9.216;2023-07-29T11:04:52;5.72;;;4.13;;
32032;SDS011;31720;52.638;9.216;2023-07-29T11:07:55;7.13;;;4.15;;
32032;SDS011;31720;52.638;9.216;2023-07-29T11:10:57;5.38;;;4.03;;
32032;SDS011;31720;52.638;9.216;2023-07-29T11:17:08;1.67;;;1.38;;
32032;SDS011;31720;52.638;9.216;2023-07-29T11:20:11;1.38;;;1.27;;
32032;SDS011;31720;52.638;9.216;2023-07-29T11:23:14;1.20;;;0.82;;
32032;SDS011;31720;52.638;9.216;2023-07-29T11:26:16;1.60;;;0.80;;
32032;SDS011;31720;52.638;9.216;2023-07-29T11:29:17;1.02;;;0.90;;
32032;SDS011;31720;52.638;9.216;2023-07-29T11:32:19;0.70;;;0.70;;
32032;SDS011;31720;52.638;9.216;2023-07-29T11:35:20;0.90;;;0.57;;
32032;SDS011;31720;52.638;9.216;2023-07-29T11:38:23;1.23;;;0.70;;
32032;SDS011;31720;52.638;9.216;2023-07-29T11:41:25;0.77;;;0.60;;
32032;SDS011;31720;52.638;9.216;2023-07-29T11:44:26;0.80;;;0.57;;
32032;SDS011;31720;52.638;9.216;2023-07-29T11:47:28;1.45;;;0.77;;
32032;SDS011;31720;52.638;9.216;2023-07-29T11:50:29;0.80;;;0.70;;
32032;SDS011;31720;52.638;9.216;2023-07-29T11:53:32;1.58;;;0.88;;
32032;SDS011;31720;52.638;9.216;2023-07-29T11:56:34;0.73;;;0.60;;
32032;SDS011;31720;52.638;9.216;2023-07-29T11:59:36;1.05;;;0.80;;
32032;SDS011;31720;52.638;9.216;2023-07-29T12:02:38;0.85;;;0.70;;
32032;SDS011;31720;52.638;9.216;2023-07-29T12:05:41;0.73;;;0.60;;
32032;SDS011;31720;52.638;9.216;2023-07-29T12:08:44;1.05;;;0.65;;
32032;SDS011;31720;52.638;9.216;2023-07-29T12:11:46;0.50;;;0.50;;
32032;SDS011;31720;52.638;9.216;2023-07-29T12:14:48;0.60;;;0.50;;
32032;SDS011;31720;52.638;9.216;2023-07-29T12:17:52;1.63;;;0.85;;
32032;SDS011;31720;52.638;9.216;2023-07-29T12:20:54;1.20;;;0.80;;
32032;SDS011;31720;52.638;9.216;2023-07-29T12:23:57;0.80;;;0.80;;
32032;SDS011;31720;52.638;9.216;2023-07-29T12:26:59;1.00;;;0.90;;
32032;SDS011;31720;52.638;9.216;2023-07-29T12:30:01;1.42;;;0.70;;
32032;SDS011;31720;52.638;9.216;2023-07-29T12:33:03;1.00;;;0.70;;
32032;SDS011;31720;52.638;9.216;2023-07-29T12:36:06;1.70;;;1.00;;
32032;SDS011;31720;52.638;9.216;2023-07-29T12:39:16;1.17;;;0.90;;
32032;SDS011;31720;52.638;9.216;2023-07-29T12:42:18;1.35;;;0.60;;
32032;SDS011;31720;52.638;9.216;2023-07-29T12:45:19;1.08;;;0.73;;
32032;SDS011;31720;52.638;9.216;2023-07-29T12:48:22;1.17;;;1.02;;
32032;SDS011;31720;52.638;9.216;2023-07-29T12:51:24;1.02;;;0.70;;
32032;SDS011;31720;52.638;9.216;2023-07-29T12:54:27;0.90;;;0.80;;
32032;SDS011;31720;52.638;9.216;2023-07-29T12:57:28;0.93;;;0.60;;
32032;SDS011;31720;52.638;9.216;2023-07-29T13:00:29;1.23;;;0.82;;
32032;SDS011;31720;52.638;9.216;2023-07-29T13:03:31;1.08;;;0.75;;
32032;SDS011;31720;52.638;9.216;2023-07-29T13:06:32;3.10;;;0.60;;
32032;SDS011;31720;52.638;9.216;2023-07-29T13:09:35;0.80;;;0.75;;
32032;SDS011;31720;52.638;9.216;2023-07-29T13:12:36;1.17;;;0.85;;
32032;SDS011;31720;52.638;9.216;2023-07-29T13:15:38;2.38;;;0.75;;
32032;SDS011;31720;52.638;9.216;2023-07-29T13:18:39;2.63;;;1.02;;
32032;SDS011;31720;52.638;9.216;2023-07-29T13:21:41;0.88;;;0.70;;
32032;SDS011;31720;52.638;9.216;2023-07-29T13:24:43;1.52;;;0.85;;
32032;SDS011;31720;52.638;9.216;2023-07-29T13:27:45;1.77;;;0.75;;
32032;SDS011;31720;52.638;9.216;2023-07-29T13:30:46;1.50;;;0.77;;
32032;SDS011;31720;52.638;9.216;2023-07-29T13:33:48;0.90;;;0.65;;
32032;SDS011;31720;52.638;9.216;2023-07-29T13:36:49;0.45;;;0.45;;
32032;SDS011;31720;52.638;9.216;2023-07-29T13:39:52;0.57;;;0.57;;
32032;SDS011;31720;52.638;9.216;2023-07-29T13:42:53;3.03;;;1.63;;
32032;SDS011;31720;52.638;9.216;2023-07-29T13:45:54;1.95;;;0.68;;
32032;SDS011;31720;52.638;9.216;2023-07-29T13:48:56;1.10;;;0.82;;
32032;SDS011;31720;52.638;9.216;2023-07-29T13:51:57;2.05;;;0.65;;
32032;SDS011;31720;52.638;9.216;2023-07-29T13:55:00;4.10;;;0.90;;
32032;SDS011;31720;52.638;9.216;2023-07-29T13:58:01;1.17;;;0.60;;
32032;SDS011;31720;52.638;9.216;2023-07-29T14:01:03;2.00;;;0.80;;
32032;SDS011;31720;52.638;9.216;2023-07-29T14:04:04;0.65;;;0.60;;
32032;SDS011;31720;52.638;9.216;2023-07-29T14:07:05;0.57;;;0.57;;
32032;SDS011;31720;52.638;9.216;2023-07-29T14:10:08;0.80;;;0.60;;
32032;SDS011;31720;52.638;9.216;2023-07-29T14:13:10;2.42;;;0.65;;
32032;SDS011;31720;52.638;9.216;2023-07-29T14:16:11;0.50;;;0.40;;
32032;SDS011;31720;52.638;9.216;2023-07-29T14:19:13;0.60;;;0.57;;
32032;SDS011;31720;52.638;9.216;2023-07-29T14:22:14;0.75;;;0.52;;
32032;SDS011;31720;52.638;9.216;2023-07-29T14:25:17;0.80;;;0.52;;
32032;SDS011;31720;52.638;9.216;2023-07-29T14:28:18;2.17;;;0.65;;
32032;SDS011;31720;52.638;9.216;2023-07-29T14:31:20;0.60;;;0.60;;
32032;SDS011;31720;52.638;9.216;2023-07-29T14:34:22;1.02;;;0.90;;
32032;SDS011;31720;52.638;9.216;2023-07-29T14:37:23;1.27;;;0.90;;
32032;SDS011;31720;52.638;9.216;2023-07-29T14:40:26;1.77;;;0.80;;
32032;SDS011;31720;52.638;9.216;2023-07-29T14:43:28;5.40;;;1.15;;
32032;SDS011;31720;52.638;9.216;2023-07-29T14:46:29;1.40;;;0.93;;
32032;SDS011;31720;52.638;9.216;2023-07-29T14:49:30;2.65;;;0.90;;
32032;SDS011;31720;52.638;9.216;2023-07-29T14:52:32;1.80;;;1.00;;
32032;SDS011;31720;52.638;9.216;2023-07-29T14:55:35;0.77;;;0.75;;
32032;SDS011;31720;52.638;9.216;2023-07-29T14:58:36;1.13;;;0.70;;
32032;SDS011;31720;52.638;9.216;2023-07-29T15:01:37;1.05;;;0.90;;
32032;SDS011;31720;52.638;9.216;2023-07-29T15:04:39;1.20;;;1.10;;
32032;SDS011;31720;52.638;9.216;2023-07-29T15:07:40;1.30;;;0.82;;
32032;SDS011;31720;52.638;9.216;2023-07-29T15:10:45;0.90;;;0.90;;
32032;SDS011;31720;52.638;9.216;2023-07-29T15:13:47;1.42;;;1.02;;
32032;SDS011;31720;52.638;9.216;2023-07-29T15:16:48;1.45;;;0.90;;
32032;SDS011;31720;52.638;9.216;2023-07-29T15:19:50;2.25;;;0.80;;
32032;SDS011;31720;52.638;9.216;2023-07-29T15:22:51;0.73;;;0.70;;
32032;SDS011;31720;52.638;9.216;2023-07-29T15:25:54;1.00;;;0.88;;
32032;SDS011;31720;52.638;9.216;2023-07-29T15:28:55;1.52;;;1.10;;
32032;SDS011;31720;52.638;9.216;2023-07-29T15:31:56;0.80;;;0.80;;
32032;SDS011;31720;52.638;9.216;2023-07-29T15:34:58;1.30;;;0.90;;
32032;SDS011;31720;52.638;9.216;2023-07-29T15:37:59;1.33;;;1.05;;
32032;SDS011;31720;52.638;9.216;2023-07-29T15:41:03;1.08;;;0.95;;
32032;SDS011;31720;52.638;9.216;2023-07-29T15:44:05;3.80;;;1.55;;
32032;SDS011;31720;52.638;9.216;2023-07-29T15:47:06;1.30;;;0.85;;
32032;SDS011;31720;52.638;9.216;2023-07-29T15:50:08;3.30;;;1.42;;
32032;SDS011;31720;52.638;9.216;2023-07-29T15:53:10;1.40;;;0.93;;
32032;SDS011;31720;52.638;9.216;2023-07-29T15:56:12;1.17;;;1.08;;
32032;SDS011;31720;52.638;9.216;2023-07-29T15:59:14;1.23;;;0.90;;
32032;SDS011;31720;52.638;9.216;2023-07-29T16:02:15;3.33;;;1.10;;
32032;SDS011;31720;52.638;9.216;2023-07-29T16:05:16;2.80;;;0.98;;
32032;SDS011;31720;52.638;9.216;2023-07-29T16:08:18;1.45;;;0.98;;
32032;SDS011;31720;52.638;9.216;2023-07-29T16:11:21;1.08;;;1.00;;
32032;SDS011;31720;52.638;9.216;2023-07-29T16:14:22;1.10;;;0.80;;
32032;SDS011;31720;52.638;9.216;2023-07-29T16:17:23;1.00;;;0.90;;
32032;SDS011;31720;52.638;9.216;2023-07-29T16:20:25;1.98;;;1.02;;
32032;SDS011;31720;52.638;9.216;2023-07-29T16:23:27;0.80;;;0.80;;
32032;SDS011;31720;52.638;9.216;2023-07-29T16:26:29;1.00;;;0.85;;
32032;SDS011;31720;52.638;9.216;2023-07-29T16:29:31;0.85;;;0.73;;
32032;SDS011;31720;52.638;9.216;2023-07-29T16:32:32;0.75;;;0.57;;
32032;SDS011;31720;52.638;9.216;2023-07-29T16:35:34;0.77;;;0.75;;
32032;SDS011;31720;52.638;9.216;2023-07-29T16:38:35;0.80;;;0.80;;
32032;SDS011;31720;52.638;9.216;2023-07-29T16:41:38;1.55;;;0.88;;
32032;SDS011;31720;52.638;9.216;2023-07-29T16:44:39;0.95;;;0.90;;
32032;SDS011;31720;52.638;9.216;2023-07-29T16:47:41;1.67;;;0.73;;
32032;SDS011;31720;52.638;9.216;2023-07-29T16:50:42;0.82;;;0.60;;
32032;SDS011;31720;52.638;9.216;2023-07-29T16:53:44;0.98;;;0.80;;
32032;SDS011;31720;52.638;9.216;2023-07-29T16:56:47;1.30;;;0.70;;
32032;SDS011;31720;52.638;9.216;2023-07-29T16:59:48;0.85;;;0.77;;
32032;SDS011;31720;52.638;9.216;2023-07-29T17:02:50;0.70;;;0.68;;
32032;SDS011;31720;52.638;9.216;2023-07-29T17:05:51;2.20;;;0.80;;
32032;SDS011;31720;52.638;9.216;2023-07-29T17:08:55;2.08;;;1.15;;
32032;SDS011;31720;52.638;9.216;2023-07-29T17:11:58;2.00;;;0.95;;
32032;SDS011;31720;52.638;9.216;2023-07-29T17:15:00;1.20;;;0.90;;
32032;SDS011;31720;52.638;9.216;2023-07-29T17:18:02;1.45;;;0.90;;
32032;SDS011;31720;52.638;9.216;2023-07-29T17:21:03;3.00;;;1.08;;
32032;SDS011;31720;52.638;9.216;2023-07-29T17:24:04;1.48;;;0.88;;
32032;SDS011;31720;52.638;9.216;2023-07-29T17:27:07;0.88;;;0.88;;
32032;SDS011;31720;52.638;9.216;2023-07-29T17:30:10;1.13;;;1.02;;
32032;SDS011;31720;52.638;9.216;2023-07-29T17:33:12;0.90;;;0.80;;
32032;SDS011;31720;52.638;9.216;2023-07-29T17:36:13;2.75;;;0.80;;
32032;SDS011;31720;52.638;9.216;2023-07-29T17:39:14;1.08;;;0.85;;
32032;SDS011;31720;52.638;9.216;2023-07-29T17:42:34;0.98;;;0.88;;
32032;SDS011;31720;52.638;9.216;2023-07-29T17:45:40;1.25;;;0.80;;
32032;SDS011;31720;52.638;9.216;2023-07-29T17:48:42;0.75;;;0.63;;
32032;SDS011;31720;52.638;9.216;2023-07-29T17:51:44;0.95;;;0.80;;
32032;SDS011;31720;52.638;9.216;2023-07-29T17:54:45;0.75;;;0.60;;
32032;SDS011;31720;52.638;9.216;2023-07-29T17:57:48;0.90;;;0.80;;
32032;SDS011;31720;52.638;9.216;2023-07-29T18:00:49;0.60;;;0.55;;
32032;SDS011;31720;52.638;9.216;2023-07-29T18:03:52;0.80;;;0.68;;
32032;SDS011;31720;52.638;9.216;2023-07-29T18:06:56;0.65;;;0.60;;
32032;SDS011;31720;52.638;9.216;2023-07-29T18:10:04;1.35;;;0.73;;
32032;SDS011;31720;52.638;9.216;2023-07-29T18:13:07;0.77;;;0.60;;
32032;SDS011;31720;52.638;9.216;2023-07-29T18:16:08;2.35;;;0.80;;
32032;SDS011;31720;52.638;9.216;2023-07-29T18:19:26;1.48;;;0.80;;
32032;SDS011;31720;52.638;9.216;2023-07-29T18:22:33;0.75;;;0.63;;
32032;SDS011;31720;52.638;9.216;2023-07-29T18:25:35;1.10;;;0.80;;